Terminal Aerodrome Forecast
Issued by NWS Jackson, MS

Home | Current Version | Previous Version | Text Only | Print | Product List | Glossary On
Versions: 1 2 3 4 5 6 7 8 9 10 11 12 13 14 15 16 17 18 19 20 21 22 23
000
FTUS44 KJAN 252300
TAFGWO
TAF
KGWO 252332Z 2600/2624 00000KT P6SM SKC
     FM260800 00000KT 4SM BR SKC
     FM261000 00000KT 2SM BR SKC
     FM261300 22006KT P6SM SKC=

USA.gov is the U.S. government's official web portal to all federal, state and local government web resources and services.